Time;durP1;ratioP1;P1;durP2;ratioP2;P2;SDS_P1;SDS_P2;PMS_P1;PMS_P2;Temp;Humidity;BMP_temperature;BMP_pressure;BME280_temperature;BME280_humidity;BME280_pressure;Samples;Min_cycle;Max_cycle;Signal;HPM_P1;HPM_P2
2020/12/11 00:00:23;;;;;;;11.57;6.70;;;3.90;99.90;;;;;;5081710;28;20056;-50
2020/12/11 00:02:49;;;;;;;11.63;6.63;;;4.00;99.90;;;;;;5072974;28;20028;-50
2020/12/11 00:05:15;;;;;;;10.43;6.13;;;3.70;99.90;;;;;;5081474;28;20109;-53
2020/12/11 00:07:41;;;;;;;11.60;6.47;;;3.90;99.90;;;;;;5076844;28;20027;-53
2020/12/11 00:10:12;;;;;;;10.98;6.43;;;3.90;99.90;;;;;;5068602;28;20037;-52
2020/12/11 00:12:38;;;;;;;9.48;5.57;;;4.00;99.90;;;;;;5064999;28;20457;-53
2020/12/11 00:15:09;;;;;;;10.40;5.80;;;4.00;99.90;;;;;;5064513;28;20021;-53
2020/12/11 00:17:34;;;;;;;9.13;5.55;;;4.10;99.90;;;;;;5066801;28;20039;-54
2020/12/11 00:20:01;;;;;;;8.40;4.82;;;4.10;99.90;;;;;;5066105;28;20024;-53
2020/12/11 00:22:27;;;;;;;7.50;4.88;;;4.00;99.90;;;;;;5065968;28;20023;-50
2020/12/11 00:24:54;;;;;;;8.63;4.82;;;4.00;99.90;;;;;;5066136;28;20478;-52
2020/12/11 00:27:19;;;;;;;8.95;5.00;;;4.00;99.90;;;;;;5066087;28;20052;-52
2020/12/11 00:29:45;;;;;;;7.72;4.60;;;4.00;99.90;;;;;;5065995;28;20067;-52
2020/12/11 00:32:11;;;;;;;8.32;4.95;;;4.00;99.90;;;;;;5066564;28;20024;-53
2020/12/11 00:34:37;;;;;;;8.00;5.07;;;3.80;99.90;;;;;;5066256;28;20028;-51
2020/12/11 00:37:04;;;;;;;10.63;5.80;;;3.90;99.90;;;;;;5065947;28;20467;-52
2020/12/11 00:39:30;;;;;;;10.18;5.90;;;3.90;99.90;;;;;;5064999;28;20033;-52
2020/12/11 00:41:56;;;;;;;9.32;5.93;;;4.00;99.90;;;;;;5065908;28;20493;-52
2020/12/11 00:44:22;;;;;;;12.23;6.78;;;3.80;99.90;;;;;;5066130;28;20023;-53
2020/12/11 00:46:47;;;;;;;12.30;6.03;;;3.50;99.90;;;;;;5065353;28;20071;-53
2020/12/11 00:49:13;;;;;;;10.38;5.63;;;3.60;99.90;;;;;;5065301;28;20613;-52
2020/12/11 00:51:38;;;;;;;8.40;5.20;;;3.90;99.90;;;;;;5066174;28;20147;-52
2020/12/11 00:54:04;;;;;;;9.23;5.68;;;3.80;99.90;;;;;;5065904;28;20547;-53
2020/12/11 00:56:30;;;;;;;10.98;6.53;;;3.90;99.90;;;;;;5065432;28;20131;-52
2020/12/11 00:58:56;;;;;;;8.65;5.30;;;3.70;99.90;;;;;;5065741;28;20020;-53
2020/12/11 01:01:21;;;;;;;8.15;4.85;;;3.70;99.90;;;;;;5065653;28;20025;-52
2020/12/11 01:03:47;;;;;;;7.38;5.00;;;3.80;99.90;;;;;;5065561;28;20066;-52
2020/12/11 01:06:13;;;;;;;10.43;5.78;;;3.80;99.90;;;;;;5076558;28;20581;-53
2020/12/11 01:08:38;;;;;;;8.35;5.18;;;3.70;99.90;;;;;;5086009;28;20072;-53
2020/12/11 01:11:04;;;;;;;8.23;5.45;;;3.60;99.90;;;;;;5085914;28;20032;-51
2020/12/11 01:13:30;;;;;;;10.57;5.97;;;3.40;99.90;;;;;;5080111;28;20032;-53
2020/12/11 01:15:55;;;;;;;11.00;6.68;;;3.30;99.90;;;;;;5065242;28;20083;-51
2020/12/11 01:18:21;;;;;;;9.90;6.45;;;3.20;99.90;;;;;;5065555;28;20029;-52
2020/12/11 01:20:47;;;;;;;9.40;5.40;;;3.50;99.90;;;;;;5065636;28;20478;-53
2020/12/11 01:23:13;;;;;;;8.00;5.28;;;3.80;99.90;;;;;;5065211;28;20048;-55
2020/12/11 01:25:38;;;;;;;8.55;4.70;;;3.90;99.90;;;;;;5065760;28;20040;-55
2020/12/11 01:28:04;;;;;;;8.27;4.47;;;3.70;99.90;;;;;;5066834;28;20260;-55
2020/12/11 01:30:31;;;;;;;7.90;4.80;;;3.80;99.90;;;;;;5065569;28;20481;-55
2020/12/11 01:32:56;;;;;;;8.05;4.70;;;3.90;99.90;;;;;;5065504;28;20020;-55
2020/12/11 01:35:22;;;;;;;8.10;5.18;;;3.90;99.90;;;;;;5065262;28;20032;-55
2020/12/11 01:37:48;;;;;;;10.60;5.40;;;4.00;99.90;;;;;;5065569;28;20024;-55
2020/12/11 01:40:14;;;;;;;7.35;4.53;;;3.80;99.90;;;;;;5065293;28;20514;-56
2020/12/11 01:42:41;;;;;;;8.23;4.85;;;3.90;99.90;;;;;;5065411;28;20033;-52
2020/12/11 01:45:07;;;;;;;9.57;5.55;;;3.80;99.90;;;;;;5065035;28;20024;-52
2020/12/11 01:47:43;;;;;;;7.60;5.25;;;4.00;99.90;;;;;;5064783;28;20663;-51
2020/12/11 01:50:18;;;;;;;5.95;4.20;;;3.90;99.90;;;;;;5065370;28;20033;-52
2020/12/11 01:52:46;;;;;;;7.97;3.95;;;3.90;99.90;;;;;;5063585;28;20042;-54
2020/12/11 01:55:12;;;;;;;8.15;4.68;;;3.80;99.90;;;;;;5065404;28;20028;-53
2020/12/11 01:57:56;;;;;;;8.45;4.85;;;3.80;99.90;;;;;;5065517;28;20063;-52
2020/12/11 02:00:23;;;;;;;11.55;5.90;;;3.90;99.90;;;;;;5064680;28;20040;-53
2020/12/11 02:03:07;;;;;;;8.32;4.65;;;3.80;99.90;;;;;;5064990;28;20024;-51
2020/12/11 02:05:33;;;;;;;6.50;4.28;;;3.80;99.90;;;;;;5064845;28;20047;-53
2020/12/11 02:07:59;;;;;;;7.28;4.32;;;3.90;99.90;;;;;;5065568;28;20028;-53
2020/12/11 02:10:25;;;;;;;9.00;4.78;;;3.90;99.90;;;;;;5068546;28;20051;-51
2020/12/11 02:12:51;;;;;;;5.80;3.88;;;3.80;99.90;;;;;;5068502;28;20028;-52
2020/12/11 02:15:17;;;;;;;9.88;5.82;;;3.90;99.90;;;;;;5068526;28;20090;-53
2020/12/11 02:17:42;;;;;;;9.68;5.90;;;3.90;99.90;;;;;;5086727;28;20109;-52
2020/12/11 02:20:08;;;;;;;6.70;4.22;;;3.90;99.90;;;;;;5089238;28;20406;-53
2020/12/11 02:22:34;;;;;;;7.13;5.05;;;4.10;99.90;;;;;;5088584;28;20040;-52
2020/12/11 02:24:59;;;;;;;7.30;4.10;;;4.10;99.90;;;;;;5088613;28;20028;-52
2020/12/11 02:27:25;;;;;;;7.47;4.32;;;4.00;99.90;;;;;;5072545;28;20031;-52
2020/12/11 02:29:51;;;;;;;7.45;4.13;;;4.10;99.90;;;;;;5088634;28;20073;-52
2020/12/11 02:32:17;;;;;;;7.60;4.05;;;4.00;99.90;;;;;;5088579;28;20050;-52
2020/12/11 02:34:44;;;;;;;7.07;4.10;;;3.90;99.90;;;;;;5088058;28;20059;-52
2020/12/11 02:37:11;;;;;;;6.85;4.25;;;3.80;99.90;;;;;;5088893;28;20030;-53
2020/12/11 02:39:37;;;;;;;7.10;4.38;;;3.80;99.90;;;;;;5088270;28;20471;-53
2020/12/11 02:42:05;;;;;;;6.55;4.07;;;3.80;99.90;;;;;;5073179;28;20033;-52
2020/12/11 02:44:30;;;;;;;6.85;4.13;;;3.80;99.90;;;;;;5067642;28;20020;-53
2020/12/11 02:46:56;;;;;;;7.03;4.32;;;3.80;99.90;;;;;;5069972;28;20452;-52
2020/12/11 02:49:21;;;;;;;8.15;4.85;;;3.80;99.90;;;;;;5085499;28;20076;-53
2020/12/11 02:51:47;;;;;;;8.80;5.40;;;3.80;99.90;;;;;;5084711;28;20489;-52
2020/12/11 02:54:13;;;;;;;8.38;5.20;;;3.80;99.90;;;;;;5067560;28;20029;-52
2020/12/11 02:56:39;;;;;;;12.57;6.00;;;3.90;99.90;;;;;;5066977;28;20544;-52
2020/12/11 02:59:04;;;;;;;12.77;6.50;;;3.90;99.90;;;;;;5067507;28;20086;-53
2020/12/11 03:01:30;;;;;;;13.90;6.30;;;3.80;99.90;;;;;;5068152;28;20063;-53
2020/12/11 03:03:56;;;;;;;16.20;6.50;;;3.80;99.90;;;;;;5067121;28;20017;-53
2020/12/11 03:06:32;;;;;;;14.10;6.30;;;3.70;99.90;;;;;;5067618;28;20108;-52
2020/12/11 03:09:01;;;;;;;13.40;6.47;;;3.70;99.90;;;;;;5068003;28;20023;-50
2020/12/11 03:11:27;;;;;;;12.23;6.43;;;3.80;99.90;;;;;;5066492;28;20437;-52
2020/12/11 03:13:53;;;;;;;14.38;6.00;;;3.60;99.90;;;;;;5067749;28;20033;-52
2020/12/11 03:16:19;;;;;;;13.85;6.20;;;3.60;99.90;;;;;;5067609;28;20555;-51
2020/12/11 03:18:46;;;;;;;13.95;5.80;;;3.40;99.90;;;;;;5067088;28;20111;-51
2020/12/11 03:21:11;;;;;;;13.52;5.90;;;3.40;99.90;;;;;;5066545;28;20036;-52
2020/12/11 03:23:37;;;;;;;14.48;6.13;;;3.40;99.90;;;;;;5066654;28;20028;-51
2020/12/11 03:26:04;;;;;;;14.60;5.88;;;3.30;99.90;;;;;;5066221;28;20020;-52
2020/12/11 03:28:33;;;;;;;15.20;5.95;;;3.40;99.90;;;;;;5067695;28;20077;-52
2020/12/11 03:30:59;;;;;;;11.20;5.68;;;3.40;99.90;;;;;;5067932;28;20029;-52
2020/12/11 03:33:26;;;;;;;11.20;5.63;;;3.40;99.90;;;;;;5067017;28;20028;-53
2020/12/11 03:35:53;;;;;;;12.43;5.80;;;3.50;99.90;;;;;;5067026;28;20069;-50
2020/12/11 03:38:19;;;;;;;11.10;5.85;;;3.40;99.90;;;;;;5067107;28;20082;-51
2020/12/11 03:40:45;;;;;;;14.25;6.35;;;3.50;99.90;;;;;;5066563;28;20025;-56
2020/12/11 03:43:11;;;;;;;13.85;6.03;;;3.40;99.90;;;;;;5067008;28;20032;-53
2020/12/11 03:45:36;;;;;;;13.90;6.72;;;3.30;99.90;;;;;;5066324;28;20025;-54
2020/12/11 03:48:03;;;;;;;9.73;5.75;;;3.30;99.90;;;;;;5066567;28;20021;-54
2020/12/11 03:50:28;;;;;;;11.30;5.75;;;3.30;99.90;;;;;;5067198;28;20063;-54
2020/12/11 03:52:54;;;;;;;8.05;4.68;;;3.20;99.90;;;;;;5066743;28;20558;-55
2020/12/11 03:55:20;;;;;;;9.20;4.93;;;3.30;99.90;;;;;;5066695;28;20073;-54
2020/12/11 03:57:45;;;;;;;7.80;4.63;;;3.30;99.90;;;;;;5066002;28;20021;-55
2020/12/11 04:00:11;;;;;;;7.15;4.05;;;3.30;99.90;;;;;;5066727;28;20036;-55
2020/12/11 04:02:37;;;;;;;7.43;4.35;;;3.40;99.90;;;;;;5066114;28;20016;-54
2020/12/11 04:05:04;;;;;;;7.07;4.18;;;3.40;99.90;;;;;;5066014;28;20047;-53
2020/12/11 04:07:30;;;;;;;9.45;5.50;;;3.40;99.90;;;;;;5066416;28;20507;-54
2020/12/11 04:09:55;;;;;;;7.70;4.75;;;3.30;99.90;;;;;;5066365;28;20056;-55
2020/12/11 04:12:21;;;;;;;7.50;4.80;;;3.30;99.90;;;;;;5066377;28;20025;-55
2020/12/11 04:14:47;;;;;;;7.95;4.75;;;3.30;99.90;;;;;;5066381;28;20022;-54
2020/12/11 04:17:12;;;;;;;7.55;4.03;;;3.30;99.90;;;;;;5065367;28;20028;-55
2020/12/11 04:19:38;;;;;;;6.10;4.20;;;3.30;99.90;;;;;;5066199;28;20032;-55
2020/12/11 04:22:04;;;;;;;8.27;4.65;;;3.40;99.90;;;;;;5066245;28;20108;-55
2020/12/11 04:24:29;;;;;;;7.25;3.95;;;3.20;99.90;;;;;;5066365;28;20528;-54
2020/12/11 04:26:55;;;;;;;6.90;4.13;;;3.20;99.90;;;;;;5066041;28;20023;-52
2020/12/11 04:29:21;;;;;;;6.25;3.83;;;3.10;99.90;;;;;;5066321;28;20085;-54
2020/12/11 04:31:58;;;;;;;7.28;4.22;;;3.20;99.90;;;;;;5065494;28;20025;-53
2020/12/11 04:34:24;;;;;;;6.80;3.80;;;3.20;99.90;;;;;;5066041;28;20082;-54
2020/12/11 04:36:57;;;;;;;8.02;4.28;;;3.40;99.90;;;;;;5080341;28;20774;-53
2020/12/11 04:39:23;;;;;;;6.88;3.60;;;3.50;99.90;;;;;;5086104;28;20059;-55
2020/12/11 04:41:51;;;;;;;5.75;3.20;;;3.70;99.90;;;;;;5086237;28;20490;-52
2020/12/11 04:44:16;;;;;;;3.47;2.38;;;3.90;99.90;;;;;;5084677;28;20028;-54
2020/12/11 04:46:42;;;;;;;2.92;1.88;;;4.10;99.90;;;;;;5071543;28;20027;-55
2020/12/11 04:49:08;;;;;;;2.55;1.63;;;4.20;99.90;;;;;;5066229;28;20032;-53
2020/12/11 04:51:34;;;;;;;2.40;1.40;;;4.30;99.90;;;;;;5085010;28;20020;-52
2020/12/11 04:54:03;;;;;;;2.58;1.40;;;4.30;99.90;;;;;;5086153;28;20081;-52
2020/12/11 04:56:30;;;;;;;2.88;1.67;;;4.50;99.90;;;;;;5082766;28;20028;-52
2020/12/11 04:58:56;;;;;;;1.75;1.20;;;4.50;99.90;;;;;;5086271;28;20058;-53
2020/12/11 05:01:30;;;;;;;2.28;1.50;;;4.50;99.90;;;;;;5084962;28;20055;-53
2020/12/11 05:03:58;;;;;;;1.70;1.15;;;4.50;99.90;;;;;;5085948;28;20020;-52
2020/12/11 05:06:25;;;;;;;2.75;1.77;;;4.50;99.90;;;;;;5070131;28;20524;-53
2020/12/11 05:09:20;;;;;;;2.92;1.45;;;4.50;99.90;;;;;;5065629;28;20471;-52
2020/12/11 05:11:46;;;;;;;3.95;1.67;;;4.40;99.90;;;;;;5065475;28;20032;-51
2020/12/11 05:14:22;;;;;;;2.72;1.50;;;4.50;99.90;;;;;;5066331;28;20041;-54
2020/12/11 05:17:01;;;;;;;3.33;2.13;;;4.40;99.90;;;;;;5064719;28;20093;-53
2020/12/11 05:19:32;;;;;;;3.50;2.25;;;4.40;99.90;;;;;;5065384;28;20017;-51
2020/12/11 05:22:11;;;;;;;3.55;2.15;;;4.40;99.90;;;;;;5064686;28;20025;-52
2020/12/11 05:24:50;;;;;;;2.78;1.80;;;4.40;99.90;;;;;;5065134;28;20043;-53
2020/12/11 05:27:34;;;;;;;3.08;1.60;;;4.50;99.90;;;;;;5065599;28;20082;-50
2020/12/11 05:30:17;;;;;;;2.30;1.75;;;4.50;99.90;;;;;;5065739;28;20024;-53
2020/12/11 05:32:51;;;;;;;2.33;1.45;;;4.40;99.90;;;;;;5065301;28;20016;-52
2020/12/11 05:35:22;;;;;;;2.67;1.42;;;4.50;99.90;;;;;;5065187;28;20119;-52
2020/12/11 05:37:49;;;;;;;2.60;1.67;;;4.40;99.90;;;;;;5065295;28;20452;-52
2020/12/11 05:40:20;;;;;;;3.03;2.03;;;4.30;99.90;;;;;;5065574;28;20021;-53
2020/12/11 05:43:13;;;;;;;3.20;2.17;;;4.40;99.90;;;;;;5082550;28;20020;-51
2020/12/11 05:45:47;;;;;;;2.97;1.80;;;4.30;99.90;;;;;;5089333;28;20024;-52
2020/12/11 05:48:13;;;;;;;4.10;2.28;;;4.30;99.90;;;;;;5072343;28;20813;-53
2020/12/11 05:50:39;;;;;;;4.82;2.47;;;4.30;99.90;;;;;;5068718;28;20071;-52
2020/12/11 05:53:04;;;;;;;5.57;2.72;;;4.40;99.90;;;;;;5081282;28;20618;-51
2020/12/11 05:55:30;;;;;;;14.57;4.65;;;4.30;99.90;;;;;;5068741;28;20601;-49
2020/12/11 05:57:58;;;;;;;11.98;4.32;;;4.40;99.90;;;;;;5075499;28;20032;-52
2020/12/11 06:00:25;;;;;;;8.05;3.47;;;4.50;99.90;;;;;;5088685;28;20031;-51
2020/12/11 06:02:52;;;;;;;5.97;2.60;;;4.50;99.90;;;;;;5073473;28;20051;-47
2020/12/11 06:05:20;;;;;;;2.85;1.70;;;4.50;99.90;;;;;;5068722;28;20028;-49
2020/12/11 06:07:48;;;;;;;2.65;1.63;;;4.50;99.90;;;;;;5068490;28;20103;-50
2020/12/11 06:10:16;;;;;;;3.08;1.75;;;4.50;99.90;;;;;;5068396;28;20047;-51
2020/12/11 06:12:42;;;;;;;3.15;1.60;;;4.50;99.90;;;;;;5068508;28;20029;-51
2020/12/11 06:15:17;;;;;;;3.28;1.83;;;4.50;99.90;;;;;;5082877;28;20762;-51
2020/12/11 06:17:58;;;;;;;2.65;1.85;;;4.50;99.90;;;;;;5069377;28;20055;-55
2020/12/11 06:20:26;;;;;;;5.28;2.53;;;4.40;99.90;;;;;;5077646;28;20028;-54
2020/12/11 06:22:52;;;;;;;3.95;2.28;;;4.30;99.90;;;;;;5079170;28;20104;-51
2020/12/11 06:25:25;;;;;;;4.57;2.45;;;4.30;99.90;;;;;;5067963;28;20016;-55
2020/12/11 06:27:51;;;;;;;2.83;2.33;;;4.30;99.90;;;;;;5070784;28;20436;-54
2020/12/11 06:30:27;;;;;;;4.85;2.30;;;4.30;99.90;;;;;;5078133;28;20051;-54
2020/12/11 06:32:53;;;;;;;4.63;2.70;;;4.30;99.90;;;;;;5078056;28;20037;-55
2020/12/11 06:35:19;;;;;;;4.13;2.53;;;4.30;99.90;;;;;;5074553;28;20032;-55
2020/12/11 06:37:44;;;;;;;6.25;3.03;;;4.40;99.90;;;;;;5067946;28;20037;-54
2020/12/11 06:40:10;;;;;;;4.00;2.63;;;4.40;99.90;;;;;;5068883;28;20083;-55
2020/12/11 06:42:36;;;;;;;4.82;2.60;;;4.30;99.90;;;;;;5066791;28;20017;-55
2020/12/11 06:45:23;;;;;;;4.35;2.53;;;4.30;99.90;;;;;;5067584;28;20029;-52
2020/12/11 06:47:54;;;;;;;4.50;2.70;;;4.30;99.90;;;;;;5067470;28;20122;-53
2020/12/11 06:50:24;;;;;;;6.75;2.95;;;4.30;99.90;;;;;;5067645;28;20032;-52
2020/12/11 06:52:50;;;;;;;4.15;2.47;;;4.30;99.90;;;;;;5067531;28;20028;-55
2020/12/11 06:55:16;;;;;;;7.25;3.00;;;4.30;99.90;;;;;;5067951;28;20043;-53
2020/12/11 06:57:43;;;;;;;5.97;3.25;;;4.40;99.90;;;;;;5067313;28;20157;-53
2020/12/11 07:00:38;;;;;;;6.43;2.90;;;4.40;99.90;;;;;;5067026;28;20102;-54
2020/12/11 07:03:13;;;;;;;4.88;2.72;;;4.40;99.90;;;;;;5066871;28;20051;-53
2020/12/11 07:05:39;;;;;;;5.70;3.00;;;4.50;99.90;;;;;;5087623;28;20565;-54
2020/12/11 07:08:15;;;;;;;4.63;2.67;;;4.50;99.90;;;;;;5084331;28;20108;-52
2020/12/11 07:10:42;;;;;;;6.05;2.90;;;4.60;99.90;;;;;;5067076;28;20063;-54
2020/12/11 07:13:09;;;;;;;5.85;2.55;;;4.70;99.90;;;;;;5067598;28;20140;-53
2020/12/11 07:15:35;;;;;;;4.65;3.03;;;4.60;99.90;;;;;;5067441;28;20035;-54
2020/12/11 07:18:02;;;;;;;5.07;2.60;;;4.70;99.90;;;;;;5066817;28;20033;-51
2020/12/11 07:20:28;;;;;;;4.07;2.40;;;4.80;99.90;;;;;;5067016;28;20028;-52
2020/12/11 07:22:59;;;;;;;6.18;2.67;;;4.80;99.90;;;;;;5067810;28;20028;-50
2020/12/11 07:25:28;;;;;;;4.75;2.33;;;4.80;99.90;;;;;;5068061;28;20104;-48
2020/12/11 07:27:58;;;;;;;5.40;2.78;;;4.90;99.90;;;;;;5067246;28;20032;-52
2020/12/11 07:30:24;;;;;;;5.13;2.75;;;5.00;99.90;;;;;;5070583;28;20074;-52
2020/12/11 07:32:53;;;;;;;3.58;1.98;;;5.00;99.90;;;;;;5069184;28;20414;-53
2020/12/11 07:35:20;;;;;;;3.67;2.53;;;5.20;99.90;;;;;;5067312;28;20024;-51
2020/12/11 07:37:53;;;;;;;5.85;2.47;;;5.20;99.90;;;;;;5066814;28;20073;-51
2020/12/11 07:40:20;;;;;;;3.72;2.50;;;5.20;99.90;;;;;;5067191;28;20029;-53
2020/12/11 07:42:48;;;;;;;4.65;2.30;;;5.20;99.90;;;;;;5069394;28;20111;-54
2020/12/11 07:45:33;;;;;;;4.22;2.28;;;5.20;99.90;;;;;;5074821;28;20031;-54
2020/12/11 07:47:58;;;;;;;;;;;5.20;99.90;;;;;;5070393;28;20119;-55
2020/12/11 07:50:26;;;;;;;4.25;2.42;;;5.20;99.90;;;;;;5077768;28;20306;-54
2020/12/11 07:52:54;;;;;;;5.60;2.20;;;5.30;99.90;;;;;;5087245;28;20545;-54
2020/12/11 07:55:21;;;;;;;3.28;1.95;;;5.40;99.90;;;;;;5069345;28;20455;-54
2020/12/11 07:57:54;;;;;;;2.60;1.85;;;5.40;99.90;;;;;;5066252;28;20025;-56
2020/12/11 08:00:21;;;;;;;4.13;1.85;;;5.40;99.90;;;;;;5068577;28;20082;-54
2020/12/11 08:02:54;;;;;;;2.38;1.80;;;5.50;99.90;;;;;;5084704;28;20461;-55
2020/12/11 08:05:22;;;;;;;3.55;1.92;;;5.50;99.90;;;;;;5075695;28;20086;-54
2020/12/11 08:07:49;;;;;;;3.60;1.75;;;5.50;99.90;;;;;;5064486;28;20398;-54
2020/12/11 08:10:16;;;;;;;3.03;1.95;;;5.60;99.90;;;;;;5064720;28;20028;-50
2020/12/11 08:12:43;;;;;;;3.78;1.77;;;5.70;99.90;;;;;;5064469;28;20063;-53
2020/12/11 08:15:10;;;;;;;5.07;1.88;;;5.70;99.90;;;;;;5064503;28;20032;-52
2020/12/11 08:17:37;;;;;;;2.55;1.60;;;5.70;99.90;;;;;;5073546;28;20059;-49
2020/12/11 08:20:05;;;;;;;2.40;1.40;;;5.90;99.90;;;;;;5064745;28;20025;-49
2020/12/11 08:22:41;;;;;;;1.90;1.20;;;5.90;99.90;;;;;;5064345;28;20027;-51
2020/12/11 08:25:16;;;;;;;1.83;1.08;;;6.00;99.90;;;;;;5064476;28;20027;-53
2020/12/11 08:27:42;;;;;;;1.98;1.20;;;6.10;99.90;;;;;;5064100;28;20124;-56
2020/12/11 08:30:13;;;;;;;1.42;0.98;;;6.10;99.90;;;;;;5071808;28;20545;-52
2020/12/11 08:32:39;;;;;;;1.45;1.02;;;6.00;99.90;;;;;;5075464;28;20115;-53
2020/12/11 08:35:22;;;;;;;2.05;1.10;;;5.90;99.90;;;;;;5084610;28;20077;-50
2020/12/11 08:37:56;;;;;;;2.33;1.35;;;5.80;99.90;;;;;;5063776;28;20029;-50
2020/12/11 08:40:22;;;;;;;3.30;1.10;;;5.70;99.90;;;;;;5068302;28;20074;-49
2020/12/11 08:45:38;;;;;;;;;;;5.50;99.90;;;;;;5084504;28;20024;-51
2020/12/11 08:50:33;;;;;;;2.03;1.20;;;5.30;99.90;;;;;;5064284;28;20047;-51
2020/12/11 08:53:04;;;;;;;3.17;1.15;;;5.20;99.90;;;;;;5063809;28;20071;-48
2020/12/11 08:55:30;;;;;;;2.65;0.98;;;5.10;99.90;;;;;;5064202;28;20349;-50
2020/12/11 08:57:57;;;;;;;1.58;1.10;;;5.00;99.90;;;;;;5064385;28;20155;-50
2020/12/11 09:00:23;;;;;;;2.78;1.10;;;4.90;99.90;;;;;;5064724;28;20032;-48
2020/12/11 09:02:48;;;;;;;1.60;1.05;;;4.80;99.90;;;;;;5063849;28;20024;-56
2020/12/11 09:05:14;;;;;;;1.30;0.95;;;4.80;99.90;;;;;;5064049;28;20038;-55
2020/12/11 09:07:39;;;;;;;2.35;1.10;;;4.70;99.90;;;;;;5063659;28;20051;-55
2020/12/11 09:10:06;;;;;;;2.55;1.48;;;4.60;99.90;;;;;;5063914;28;20107;-57
2020/12/11 09:12:33;;;;;;;2.25;1.60;;;4.60;99.90;;;;;;5064179;28;20102;-55
2020/12/11 09:14:59;;;;;;;2.05;1.05;;;4.60;99.90;;;;;;5063728;28;20021;-55
2020/12/11 09:17:24;;;;;;;2.90;1.30;;;4.50;99.90;;;;;;5065743;28;20518;-55
2020/12/11 09:19:50;;;;;;;2.85;1.25;;;4.50;99.90;;;;;;5068280;28;20032;-56
2020/12/11 09:22:16;;;;;;;1.92;1.25;;;4.40;99.90;;;;;;5068148;28;20106;-57
2020/12/11 09:24:41;;;;;;;2.35;1.13;;;4.40;99.90;;;;;;5067792;28;20021;-55
2020/12/11 09:27:08;;;;;;;3.00;1.33;;;4.40;99.90;;;;;;5067690;28;20032;-55
2020/12/11 09:29:39;;;;;;;2.85;1.50;;;4.30;99.90;;;;;;5067634;28;20405;-56
2020/12/11 09:32:07;;;;;;;2.88;2.30;;;4.30;99.90;;;;;;5067993;28;20135;-55
2020/12/11 09:34:34;;;;;;;1.67;1.02;;;4.20;99.90;;;;;;5068037;28;20066;-55
2020/12/11 09:37:04;;;;;;;1.83;1.20;;;4.10;99.90;;;;;;5067292;28;20040;-53
2020/12/11 09:39:30;;;;;;;1.75;1.13;;;4.00;99.90;;;;;;5067518;28;20025;-50
2020/12/11 09:42:17;;;;;;;1.55;0.98;;;3.90;99.90;;;;;;5068199;28;21256;-50
2020/12/11 09:55:17;;;;;;;1.92;1.10;;;3.70;99.90;;;;;;5067008;28;20156;-50
2020/12/11 09:57:43;;;;;;;2.30;1.50;;;3.70;99.90;;;;;;5066467;28;20125;-49
2020/12/11 10:00:10;;;;;;;2.83;2.08;;;3.70;99.90;;;;;;5067444;28;20074;-50
2020/12/11 10:02:50;;;;;;;1.83;1.00;;;3.70;99.90;;;;;;5067494;28;20023;-54
2020/12/11 10:05:15;;;;;;;2.05;1.05;;;3.60;99.90;;;;;;5067225;28;20012;-50
2020/12/11 10:07:42;;;;;;;3.83;1.55;;;3.70;99.90;;;;;;5066823;28;20055;-49
2020/12/11 10:10:08;;;;;;;1.92;1.48;;;3.70;99.90;;;;;;5066600;28;20513;-50
2020/12/11 10:12:33;;;;;;;2.65;1.40;;;3.70;99.90;;;;;;5065834;28;20349;-50
2020/12/11 10:15:05;;;;;;;1.45;1.17;;;3.60;99.90;;;;;;5065692;28;20024;-50
2020/12/11 10:17:31;;;;;;;2.00;1.30;;;3.70;99.90;;;;;;5065798;28;20056;-48
2020/12/11 10:19:56;;;;;;;4.03;1.85;;;3.70;99.90;;;;;;5066506;28;20084;-51
2020/12/11 10:22:22;;;;;;;3.28;2.75;;;3.70;99.90;;;;;;5065873;28;20032;-49
2020/12/11 10:24:48;;;;;;;3.05;1.98;;;3.80;99.90;;;;;;5065699;28;20033;-49
2020/12/11 10:27:14;;;;;;;2.05;1.42;;;3.80;99.90;;;;;;5065507;28;20470;-49
2020/12/11 10:29:42;;;;;;;2.05;1.40;;;3.80;99.90;;;;;;5064752;28;20029;-49
2020/12/11 10:32:08;;;;;;;2.50;1.73;;;3.70;99.90;;;;;;5064240;28;20356;-49
2020/12/11 10:34:35;;;;;;;2.50;1.65;;;3.70;99.90;;;;;;5065506;28;20035;-51
2020/12/11 10:37:06;;;;;;;2.08;1.50;;;3.70;99.90;;;;;;5065199;28;20016;-48
2020/12/11 10:39:32;;;;;;;3.60;3.30;;;3.70;99.90;;;;;;5065865;28;20067;-50
2020/12/11 10:42:02;;;;;;;2.80;2.13;;;3.80;99.90;;;;;;5064755;28;20052;-48
2020/12/11 10:44:28;;;;;;;2.00;1.50;;;3.80;99.90;;;;;;5065515;28;20032;-48
2020/12/11 10:46:53;;;;;;;1.88;1.35;;;3.80;99.90;;;;;;5065388;28;20416;-48
2020/12/11 10:49:19;;;;;;;2.13;1.50;;;3.90;99.90;;;;;;5065322;28;20644;-48
2020/12/11 10:51:46;;;;;;;4.80;2.10;;;3.90;99.90;;;;;;5064928;28;20110;-49
2020/12/11 10:54:14;;;;;;;3.17;1.95;;;4.00;99.90;;;;;;5065482;28;20021;-49
2020/12/11 10:56:41;;;;;;;1.83;1.50;;;4.00;99.90;;;;;;5064537;28;20032;-48
2020/12/11 10:59:07;;;;;;;2.03;1.42;;;4.00;99.90;;;;;;5065215;28;20028;-49
2020/12/11 11:01:33;;;;;;;2.92;2.00;;;4.20;99.90;;;;;;5065288;28;20166;-51
2020/12/11 11:03:59;;;;;;;3.08;1.92;;;4.20;99.90;;;;;;5065018;28;20542;-47
2020/12/11 11:12:00;;;;;;;2.30;1.80;;;4.40;99.90;;;;;;5044085;28;606474;-46
2020/12/11 11:19:52;;;;;;;3.28;2.00;;;4.60;99.90;;;;;;5065853;28;20028;-47
2020/12/11 11:22:38;;;;;;;2.45;1.70;;;4.60;99.90;;;;;;5065716;28;20025;-49
2020/12/11 11:28:01;;;;;;;2.67;1.60;;;4.70;99.90;;;;;;5065513;28;20025;-47
2020/12/11 11:30:28;;;;;;;2.60;1.65;;;4.80;99.90;;;;;;5066405;28;20032;-47
2020/12/11 11:32:55;;;;;;;2.30;1.27;;;4.90;99.90;;;;;;5065902;28;20024;-48
2020/12/11 11:35:22;;;;;;;3.20;1.70;;;4.90;99.90;;;;;;5065548;28;20028;-47
2020/12/11 11:37:49;;;;;;;3.83;1.35;;;5.10;99.90;;;;;;5063695;28;21088;-47
2020/12/11 11:40:17;;;;;;;2.35;1.63;;;5.10;99.90;;;;;;5064923;28;20355;-49
2020/12/11 11:42:43;;;;;;;2.42;1.20;;;5.10;99.90;;;;;;5064992;28;20400;-46
2020/12/11 11:45:12;;;;;;;3.72;1.50;;;5.10;99.90;;;;;;5064961;28;20057;-47
2020/12/11 11:47:40;;;;;;;1.88;1.20;;;5.20;99.90;;;;;;5064908;28;20162;-50
2020/12/11 11:55:11;;;;;;;3.17;1.17;;;5.30;99.90;;;;;;5101894;28;20513;-47
2020/12/11 11:57:46;;;;;;;1.70;1.00;;;5.50;99.90;;;;;;5091074;28;20016;-48
2020/12/11 12:00:11;;;;;;;1.10;0.75;;;5.60;99.90;;;;;;5082354;28;20505;-47
2020/12/11 12:02:37;;;;;;;1.10;1.00;;;5.90;99.90;;;;;;5073698;28;20130;-47
2020/12/11 12:05:06;;;;;;;1.40;1.10;;;5.70;99.90;;;;;;5070505;28;20063;-48
2020/12/11 12:07:33;;;;;;;2.42;1.00;;;5.70;99.90;;;;;;5075933;28;20008;-47
2020/12/11 12:09:59;;;;;;;1.30;0.93;;;5.30;99.90;;;;;;5072979;28;20204;-47
2020/12/11 12:12:24;;;;;;;1.45;1.00;;;5.50;99.90;;;;;;5085066;28;20031;-48
2020/12/11 12:14:52;;;;;;;2.00;1.00;;;5.80;99.90;;;;;;5083294;28;20028;-47
2020/12/11 12:17:21;;;;;;;2.22;1.13;;;6.60;99.90;;;;;;5075946;28;20717;-48
2020/12/11 12:19:50;;;;;;;1.52;0.93;;;6.20;99.90;;;;;;5072553;28;20261;-47
2020/12/11 12:22:53;;;;;;;3.47;1.15;;;5.20;99.90;;;;;;5067900;28;20025;-47
2020/12/11 12:28:16;;;;;;;1.55;1.08;;;6.20;99.90;;;;;;5063801;28;20470;-47
2020/12/11 12:30:36;;;;;;;1.73;1.10;;;6.40;99.90;;;;;;5063581;28;20120;-47
2020/12/11 12:43:59;;;;;;;1.63;0.98;;;6.40;99.90;;;;;;5065351;28;20105;-48
2020/12/11 12:46:26;;;;;;;1.50;1.17;;;6.70;99.90;;;;;;5072688;28;20032;-48
2020/12/11 12:48:52;;;;;;;0.93;0.80;;;6.20;99.90;;;;;;5083747;28;20042;-47
2020/12/11 12:51:18;;;;;;;1.65;1.23;;;6.60;99.90;;;;;;5071186;28;20491;-47
2020/12/11 12:53:44;;;;;;;2.72;1.13;;;6.40;99.90;;;;;;5063468;28;20456;-47
2020/12/11 12:59:00;;;;;;;0.80;0.80;;;6.60;99.90;;;;;;5075675;28;20122;-47
2020/12/11 13:01:53;;;;;;;1.27;0.90;;;6.70;99.90;;;;;;5084431;28;20024;-46
2020/12/11 13:04:29;;;;;;;1.10;0.68;;;6.70;99.90;;;;;;5083990;28;20028;-47
2020/12/11 13:06:55;;;;;;;4.65;0.70;;;6.80;99.90;;;;;;5083709;28;20441;-49
2020/12/11 13:09:21;;;;;;;1.17;0.77;;;7.10;99.90;;;;;;5083840;28;20031;-47
2020/12/11 13:11:51;;;;;;;0.70;0.60;;;;;;;;;;5072338;28;20032;-47
2020/12/11 13:14:20;;;;;;;1.20;0.85;;;6.80;99.90;;;;;;5063742;28;20021;-48
2020/12/11 13:16:48;;;;;;;1.05;0.75;;;6.50;99.90;;;;;;5063090;28;20090;-47
2020/12/11 13:19:17;;;;;;;1.58;0.70;;;;;;;;;;5070009;28;20082;-48
2020/12/11 13:22:21;;;;;;;1.17;0.90;;;6.50;99.90;;;;;;5083075;28;20034;-51
2020/12/11 13:27:30;;;;;;;0.93;0.77;;;6.70;99.90;;;;;;5063211;28;20028;-46
2020/12/11 13:29:57;;;;;;;0.68;0.60;;;6.70;99.90;;;;;;5063696;28;20525;-47
2020/12/11 13:32:23;;;;;;;1.58;0.80;;;6.50;99.90;;;;;;5064183;28;20095;-46
2020/12/11 13:34:50;;;;;;;5.50;2.90;;;;;;;;;;5073387;28;20510;-46
2020/12/11 13:37:17;;;;;;;2.85;1.70;;;;;;;;;;5069359;28;20025;-47
2020/12/11 13:39:43;;;;;;;2.78;1.60;;;;;;;;;;5083308;28;20035;-48
2020/12/11 13:42:09;;;;;;;10.35;4.85;;;;;;;;;;5073516;28;20024;-49
2020/12/11 13:44:35;;;;;;;3.63;1.95;;;;;;;;;;5062423;28;20111;-48
2020/12/11 13:47:04;;;;;;;0.98;0.88;;;6.50;99.90;;;;;;5063122;28;20075;-48
2020/12/11 13:49:31;;;;;;;1.25;0.80;;;;;;;;;;5063326;28;20060;-46
2020/12/11 13:51:57;;;;;;;1.10;0.68;;;6.50;99.90;;;;;;5063325;28;20029;-47
2020/12/11 13:54:22;;;;;;;1.98;1.00;;;6.70;99.90;;;;;;5063135;28;20393;-46
2020/12/11 13:56:49;;;;;;;1.67;1.38;;;6.70;99.90;;;;;;5062422;28;20024;-45